Time;durP1;ratioP1;P1;durP2;ratioP2;P2;SDS_P1;SDS_P2;PMS_P1;PMS_P2;Temp;Humidity;BMP_temperature;BMP_pressure;BME280_temperature;BME280_humidity;BME280_pressure;Samples;Min_cycle;Max_cycle;Signal;HPM_P1;HPM_P2
2022/07/05 00:08:42;;;;;;;1.67;1.13;;;19.90;58.60;;;;;;20994869;28;20237;-77
2022/07/05 00:18:44;;;;;;;3.37;1.40;;;19.70;59.00;;;;;;21004345;28;20214;-74
2022/07/05 00:28:45;;;;;;;3.67;1.30;;;19.60;59.70;;;;;;20997373;28;20233;-72
2022/07/05 00:38:47;;;;;;;4.60;1.50;;;19.40;60.50;;;;;;20993774;28;20203;-72
2022/07/05 00:48:50;;;;;;;2.60;1.40;;;19.30;61.30;;;;;;21007034;28;20251;-76
2022/07/05 00:58:53;;;;;;;6.60;1.50;;;19.20;62.30;;;;;;21009722;28;20240;-76
2022/07/05 01:08:54;;;;;;;1.70;1.50;;;19.20;63.20;;;;;;21008125;28;20237;-72
2022/07/05 01:18:56;;;;;;;3.53;1.40;;;19.10;63.50;;;;;;21007574;28;20212;-73
2022/07/05 01:28:58;;;;;;;2.67;1.70;;;19.10;63.60;;;;;;21007081;28;20236;-69
2022/07/05 01:39:06;;;;;;;1.90;1.40;;;18.90;64.00;;;;;;21005984;28;20655;-71
2022/07/05 01:49:16;;;;;;;3.53;1.70;;;18.60;64.70;;;;;;21005119;28;20249;-69
2022/07/05 01:59:18;;;;;;;2.23;1.40;;;18.50;65.40;;;;;;21003732;28;20225;-71
2022/07/05 02:09:19;;;;;;;5.53;1.40;;;18.30;65.90;;;;;;21003429;28;20251;-71
2022/07/05 02:19:21;;;;;;;3.40;1.47;;;18.20;66.60;;;;;;21002011;28;20208;-69
2022/07/05 02:29:23;;;;;;;5.63;1.43;;;18.20;67.20;;;;;;20999915;28;20231;-73
2022/07/05 02:39:25;;;;;;;2.50;1.40;;;18.10;67.70;;;;;;21001259;28;20658;-72
2022/07/05 02:49:26;;;;;;;1.60;1.40;;;18.10;68.10;;;;;;21004805;28;20253;-71
2022/07/05 02:59:29;;;;;;;1.70;1.40;;;17.90;68.20;;;;;;21000653;28;20209;-74
2022/07/05 03:09:31;;;;;;;3.63;1.60;;;17.90;68.60;;;;;;20999002;28;20658;-73
2022/07/05 03:19:33;;;;;;;2.47;1.60;;;17.80;69.00;;;;;;20998631;28;20555;-74
2022/07/05 03:29:35;;;;;;;2.43;1.80;;;17.80;69.70;;;;;;20997506;28;20738;-71
2022/07/05 03:39:37;;;;;;;4.77;1.70;;;17.70;70.20;;;;;;20996321;28;20299;-73
2022/07/05 03:49:39;;;;;;;6.07;1.87;;;17.60;70.50;;;;;;20996292;28;20238;-70
2022/07/05 03:59:42;;;;;;;4.50;1.83;;;17.50;70.90;;;;;;21000303;28;20564;-73
2022/07/05 04:09:44;;;;;;;3.20;1.80;;;17.50;71.10;;;;;;20994316;28;20724;-69
2022/07/05 04:19:47;;;;;;;3.80;1.90;;;17.50;71.50;;;;;;20993534;28;20206;-71
2022/07/05 04:29:49;;;;;;;3.23;1.80;;;17.60;71.60;;;;;;21016264;28;20245;-72
2022/07/05 04:39:51;;;;;;;6.70;2.10;;;17.70;71.80;;;;;;21018487;28;20209;-72
2022/07/05 04:49:53;;;;;;;11.43;2.50;;;17.80;71.90;;;;;;20995412;28;20240;-72
2022/07/05 04:59:55;;;;;;;21.53;2.90;;;17.90;71.80;;;;;;20993361;28;20211;-73
2022/07/05 05:09:57;;;;;;;12.10;3.30;;;18.00;71.90;;;;;;20990876;28;20264;-71
2022/07/05 05:19:58;;;;;;;11.93;3.50;;;18.30;71.80;;;;;;20992026;28;20207;-71
2022/07/05 05:30:00;;;;;;;6.73;2.80;;;18.40;71.50;;;;;;20996859;28;20234;-71
2022/07/05 05:40:02;;;;;;;14.33;2.40;;;18.70;71.30;;;;;;21004805;28;20718;-69
2022/07/05 05:50:04;;;;;;;10.07;2.80;;;18.90;70.60;;;;;;21003893;28;20233;-71
2022/07/05 06:00:07;;;;;;;12.20;3.10;;;19.20;69.90;;;;;;20983355;28;20209;-69
2022/07/05 06:10:09;;;;;;;7.20;2.50;;;19.40;69.10;;;;;;21001952;28;20241;-71
2022/07/05 06:20:14;;;;;;;9.67;5.47;;;19.70;68.60;;;;;;21001462;28;20207;-71
2022/07/05 06:30:19;;;;;;;12.17;2.60;;;19.90;67.50;;;;;;20999266;28;20239;-72
2022/07/05 06:40:26;;;;;;;4.57;3.20;;;20.20;66.80;;;;;;20997495;28;20237;-72
2022/07/05 06:50:31;;;;;;;8.87;2.93;;;20.40;65.80;;;;;;20998526;28;20249;-71
2022/07/05 07:00:32;;;;;;;7.77;1.90;;;20.60;64.30;;;;;;21002415;28;20243;-70
2022/07/05 07:10:54;;;;;;;8.23;1.60;;;20.80;62.50;;;;;;20998976;28;20759;-72
2022/07/05 07:20:56;;;;;;;8.23;1.90;;;21.10;61.60;;;;;;20996917;28;20220;-73
2022/07/05 07:30:57;;;;;;;4.00;1.63;;;21.40;60.70;;;;;;20997013;28;20242;-69
2022/07/05 07:41:00;;;;;;;6.67;1.70;;;21.70;60.10;;;;;;20978019;28;20249;-69
2022/07/05 07:51:02;;;;;;;4.33;1.50;;;22.00;58.90;;;;;;20994231;28;20334;-73
2022/07/05 08:01:05;;;;;;;5.00;1.50;;;22.30;57.50;;;;;;20993679;28;20317;-70
2022/07/05 08:11:09;;;;;;;5.60;1.37;;;22.60;57.20;;;;;;20993879;28;20327;-71
2022/07/05 08:31:34;;;;;;;7.70;2.83;;;23.10;55.60;;;;;;21077593;28;20237;-70
2022/07/05 08:41:37;;;;;;;8.10;2.50;;;23.30;55.00;;;;;;21076570;28;20713;-70
2022/07/05 08:51:41;;;;;;;4.17;1.57;;;23.40;54.40;;;;;;21076014;28;20230;-70
2022/07/05 09:01:46;;;;;;;6.17;2.27;;;23.70;54.10;;;;;;21076434;28;20252;-71
2022/07/05 09:11:48;;;;;;;2.73;1.80;;;24.10;53.00;;;;;;21090724;28;20329;-70
2022/07/05 09:22:10;;;;;;;3.07;2.63;;;24.30;51.20;;;;;;21090272;28;20203;-71
2022/07/05 09:32:23;;;;;;;15.23;11.97;;;24.30;50.40;;;;;;21116233;28;20744;-70
2022/07/05 09:42:25;;;;;;;5.53;4.40;;;24.70;50.00;;;;;;21100941;28;20630;-70
2022/07/05 09:52:28;;;;;;;12.37;5.80;;;24.60;49.80;;;;;;21089299;28;20236;-71
2022/07/05 10:02:41;;;;;;;2.53;1.43;;;24.50;49.90;;;;;;21087345;28;20202;-70
2022/07/05 10:12:43;;;;;;;3.20;1.20;;;24.90;48.40;;;;;;21085863;28;20226;-70
2022/07/05 10:22:46;;;;;;;6.80;2.27;;;25.10;47.90;;;;;;21063400;28;20667;-70
2022/07/05 10:32:49;;;;;;;2.03;1.40;;;25.10;47.40;;;;;;20999181;28;20227;-71
2022/07/05 10:42:55;;;;;;;3.90;1.83;;;25.40;46.80;;;;;;21001350;28;20241;-72
2022/07/05 10:53:03;;;;;;;3.67;2.10;;;25.50;47.10;;;;;;20999194;28;20253;-73
2022/07/05 11:03:35;;;;;;;4.23;1.53;;;25.80;46.80;;;;;;20980226;28;20234;-74
2022/07/05 11:13:43;;;;;;;3.27;1.30;;;25.60;46.50;;;;;;20997851;28;20243;-72
2022/07/05 11:23:45;;;;;;;2.00;1.63;;;25.70;46.00;;;;;;20993527;28;20203;-71
2022/07/05 11:33:50;;;;;;;8.00;2.50;;;25.80;45.40;;;;;;20994545;28;20229;-70
2022/07/05 11:43:57;;;;;;;7.30;3.27;;;25.80;45.20;;;;;;20994328;28;20714;-70
2022/07/05 11:54:01;;;;;;;6.60;3.97;;;25.70;45.20;;;;;;20994521;28;20654;-70
2022/07/05 12:04:25;;;;;;;13.67;1.90;;;26.00;44.70;;;;;;21036575;28;20218;-70
2022/07/05 12:14:27;;;;;;;3.40;1.90;;;26.40;44.00;;;;;;21077126;28;20233;-69
2022/07/05 12:24:29;;;;;;;8.23;1.90;;;26.40;43.10;;;;;;21066525;28;20234;-70
2022/07/05 12:34:31;;;;;;;4.03;2.43;;;26.40;42.30;;;;;;21072976;28;20588;-69
2022/07/05 12:44:33;;;;;;;4.50;1.50;;;26.60;41.20;;;;;;21091593;28;20241;-73
2022/07/05 13:04:55;;;;;;;5.97;1.40;;;26.70;39.30;;;;;;21090533;28;20219;-69
2022/07/05 13:14:56;;;;;;;5.90;1.90;;;26.60;40.20;;;;;;21091034;28;20205;-69
2022/07/05 13:24:58;;;;;;;2.90;1.50;;;26.70;40.10;;;;;;21089987;28;20238;-70
2022/07/05 13:35:00;;;;;;;2.37;2.13;;;26.80;38.90;;;;;;21088625;28;20205;-71
2022/07/05 13:45:02;;;;;;;2.80;1.83;;;26.80;38.40;;;;;;21090124;28;20252;-70
2022/07/05 13:55:04;;;;;;;3.50;1.50;;;27.10;38.60;;;;;;21086238;28;20203;-70
2022/07/05 14:05:06;;;;;;;2.38;1.50;;;27.10;38.20;;;;;;21087389;28;20241;-70
2022/07/05 14:15:08;;;;;;;2.75;2.47;;;27.10;38.20;;;;;;21102678;28;20202;-73
2022/07/05 14:25:09;;;;;;;2.70;2.13;;;27.20;38.50;;;;;;21143090;28;20230;-71
2022/07/05 14:35:12;;;;;;;14.47;3.10;;;27.30;38.00;;;;;;21100972;28;20233;-71
2022/07/05 14:45:14;;;;;;;3.80;1.80;;;27.10;38.30;;;;;;21082166;28;20227;-67
2022/07/05 14:55:17;;;;;;;3.73;1.90;;;26.90;39.30;;;;;;21082339;28;20199;-65
2022/07/05 15:05:18;;;;;;;3.63;1.67;;;27.30;39.90;;;;;;21080489;28;20233;-67
2022/07/05 15:15:20;;;;;;;5.80;1.77;;;27.20;39.20;;;;;;21082152;28;20203;-69
2022/07/05 15:25:22;;;;;;;5.17;1.60;;;27.00;39.70;;;;;;21081255;28;20262;-65
2022/07/05 15:35:24;;;;;;;3.30;1.53;;;27.40;39.50;;;;;;21080715;28;20217;-67
2022/07/05 15:45:26;;;;;;;3.70;1.60;;;27.20;38.70;;;;;;21079373;28;20235;-66
2022/07/05 15:55:28;;;;;;;4.55;1.40;;;27.10;39.30;;;;;;21078051;28;20210;-68
2022/07/05 16:05:29;;;;;;;2.13;1.30;;;27.70;37.80;;;;;;21077417;28;20699;-70
2022/07/05 16:25:52;;;;;;;3.63;1.33;;;29.20;36.40;;;;;;21049283;28;20245;-71
2022/07/05 16:35:54;;;;;;;3.65;1.40;;;28.50;35.20;;;;;;20990977;28;20252;-70
2022/07/05 16:45:55;;;;;;;2.93;1.37;;;27.80;36.00;;;;;;20993114;28;20249;-72
2022/07/05 16:55:57;;;;;;;2.20;1.53;;;27.30;36.30;;;;;;20976052;28;20211;-71
2022/07/05 17:05:59;;;;;;;3.27;1.40;;;27.10;36.50;;;;;;21007623;28;20545;-77
2022/07/05 17:16:01;;;;;;;3.47;2.00;;;26.90;37.20;;;;;;21001167;28;20218;-76
2022/07/05 17:26:04;;;;;;;4.10;1.80;;;26.80;38.40;;;;;;21021624;28;20254;-77
2022/07/05 17:36:10;;;;;;;4.80;1.70;;;27.20;38.70;;;;;;21040309;28;20686;-75
2022/07/05 17:46:18;;;;;;;3.93;2.00;;;26.90;39.20;;;;;;21043020;28;20243;-76
2022/07/05 17:56:20;;;;;;;2.83;1.60;;;27.20;39.00;;;;;;21031419;28;20265;-74
2022/07/05 18:06:22;;;;;;;5.87;1.80;;;26.90;39.30;;;;;;21005765;28;20605;-74
2022/07/05 18:16:23;;;;;;;5.17;1.70;;;26.80;40.30;;;;;;21005492;28;20211;-70
2022/07/05 18:26:25;;;;;;;9.73;2.90;;;26.40;40.90;;;;;;21006977;28;20285;-70
2022/07/05 18:36:47;;;;;;;3.33;2.63;;;26.10;41.20;;;;;;21005595;28;20203;-69
2022/07/05 18:46:50;;;;;;;4.63;1.67;;;25.90;41.70;;;;;;21001580;28;20577;-72
2022/07/05 18:56:52;;;;;;;5.87;1.80;;;25.70;43.10;;;;;;21000908;28;20745;-70
2022/07/05 19:17:21;;;;;;;5.57;2.83;;;25.30;43.50;;;;;;20999168;28;20210;-74
2022/07/05 19:27:23;;;;;;;4.93;2.17;;;25.10;44.00;;;;;;21020751;28;20230;-68
2022/07/05 19:37:25;;;;;;;4.47;2.17;;;24.80;44.90;;;;;;21034088;28;20203;-65
2022/07/05 19:47:27;;;;;;;3.57;2.53;;;24.60;45.50;;;;;;20998378;28;20242;-65
2022/07/05 19:57:29;;;;;;;4.40;2.10;;;24.40;46.10;;;;;;20997545;28;20199;-67
2022/07/05 20:07:31;;;;;;;6.83;2.17;;;24.20;46.70;;;;;;21004856;28;20230;-70
2022/07/05 20:17:32;;;;;;;3.87;2.20;;;24.00;47.20;;;;;;21026975;28;20202;-69
2022/07/05 20:27:34;;;;;;;3.87;2.20;;;23.80;47.60;;;;;;21048435;28;20231;-70
2022/07/05 20:37:36;;;;;;;4.70;2.10;;;23.60;48.00;;;;;;21000963;28;20242;-69
2022/07/05 20:47:38;;;;;;;4.23;2.10;;;23.50;48.80;;;;;;20993986;28;20865;-69
2022/07/05 20:57:39;;;;;;;3.00;1.90;;;23.30;49.40;;;;;;21018131;28;20238;-70
2022/07/05 21:07:44;;;;;;;5.47;2.10;;;23.20;50.00;;;;;;21027094;28;20227;-70
2022/07/05 21:17:46;;;;;;;3.00;2.27;;;23.10;50.30;;;;;;21008827;28;20207;-70
2022/07/05 21:27:49;;;;;;;4.07;3.20;;;22.90;50.40;;;;;;21022778;28;20256;-72
2022/07/05 21:37:51;;;;;;;4.67;2.80;;;22.70;50.80;;;;;;21087383;28;20657;-71
2022/07/05 21:47:53;;;;;;;5.50;2.67;;;22.70;51.60;;;;;;21072139;28;20242;-71
2022/07/05 21:57:56;;;;;;;2.60;2.40;;;22.60;51.40;;;;;;21090181;28;20727;-71
2022/07/05 22:07:58;;;;;;;2.67;2.33;;;22.50;51.50;;;;;;21088373;28;20796;-70
2022/07/05 22:17:59;;;;;;;7.90;3.10;;;22.40;51.50;;;;;;21052162;28;20203;-72
2022/07/05 22:28:01;;;;;;;4.10;2.73;;;22.40;51.60;;;;;;20999910;28;20234;-72
2022/07/05 22:38:03;;;;;;;5.47;3.10;;;22.30;52.10;;;;;;21003110;28;20545;-71
2022/07/05 22:48:05;;;;;;;3.73;2.73;;;22.20;52.50;;;;;;21001396;28;20246;-72
2022/07/05 22:58:10;;;;;;;7.87;3.90;;;21.70;52.80;;;;;;21001407;28;20663;-73
2022/07/05 23:08:12;;;;;;;7.83;4.10;;;21.70;53.50;;;;;;21000145;28;20694;-70
2022/07/05 23:18:13;;;;;;;8.33;4.40;;;21.50;54.00;;;;;;20999325;28;20318;-71
2022/07/05 23:28:15;;;;;;;6.50;4.50;;;21.40;54.60;;;;;;20999921;28;20733;-70
2022/07/05 23:38:17;;;;;;;6.33;3.83;;;21.20;54.90;;;;;;20999267;28;20250;-71
2022/07/05 23:48:19;;;;;;;5.37;3.13;;;21.00;55.30;;;;;;20998106;28;20250;-72
2022/07/05 23:58:21;;;;;;;5.03;2.60;;;20.80;55.70;;;;;;20997283;28;20241;-71
